地図

経路データ

SID SEASON NUMBER BASIN SUBBASIN NAME ISO_TIME NATURE LAT LON WMO_WIND WMO_PRES WMO_AGENCY TRACK_TYPE DIST2LAND LANDFALL IFLAG USA_AGENCY USA_ATCF_ID USA_LAT USA_LON USA_RECORD USA_STATUS USA_WIND USA_PRES USA_SSHS USA_R34_NE USA_R34_SE USA_R34_SW USA_R34_NW USA_R50_NE USA_R50_SE USA_R50_SW USA_R50_NW USA_R64_NE USA_R64_SE USA_R64_SW USA_R64_NW USA_POCI USA_ROCI USA_RMW USA_EYE TOKYO_LAT TOKYO_LON TOKYO_GRADE TOKYO_WIND TOKYO_PRES TOKYO_R50_DIR TOKYO_R50_LONG TOKYO_R50_SHORT TOKYO_R30_DIR TOKYO_R30_LONG TOKYO_R30_SHORT TOKYO_LAND CMA_LAT CMA_LON CMA_CAT CMA_WIND CMA_PRES HKO_LAT HKO_LON HKO_CAT HKO_WIND HKO_PRES NEWDELHI_LAT NEWDELHI_LON NEWDELHI_GRADE NEWDELHI_WIND NEWDELHI_PRES NEWDELHI_CI NEWDELHI_DP NEWDELHI_POCI REUNION_LAT REUNION_LON REUNION_TYPE REUNION_WIND REUNION_PRES REUNION_TNUM REUNION_CI REUNION_RMW REUNION_R34_NE REUNION_R34_SE REUNION_R34_SW REUNION_R34_NW REUNION_R50_NE REUNION_R50_SE REUNION_R50_SW REUNION_R50_NW REUNION_R64_NE REUNION_R64_SE REUNION_R64_SW REUNION_R64_NW BOM_LAT BOM_LON BOM_TYPE BOM_WIND BOM_PRES BOM_TNUM BOM_CI BOM_RMW BOM_R34_NE BOM_R34_SE BOM_R34_SW BOM_R34_NW BOM_R50_NE BOM_R50_SE BOM_R50_SW BOM_R50_NW BOM_R64_NE BOM_R64_SE BOM_R64_SW BOM_R64_NW BOM_ROCI BOM_POCI BOM_EYE BOM_POS_METHOD BOM_PRES_METHOD NADI_LAT NADI_LON NADI_CAT NADI_WIND NADI_PRES WELLINGTON_LAT WELLINGTON_LON WELLINGTON_WIND WELLINGTON_PRES DS824_LAT DS824_LON DS824_STAGE DS824_WIND DS824_PRES TD9636_LAT TD9636_LON TD9636_STAGE TD9636_WIND TD9636_PRES TD9635_LAT TD9635_LON TD9635_WIND TD9635_PRES TD9635_ROCI NEUMANN_LAT NEUMANN_LON NEUMANN_CLASS NEUMANN_WIND NEUMANN_PRES MLC_LAT MLC_LON MLC_CLASS MLC_WIND MLC_PRES USA_GUST BOM_GUST BOM_GUST_PER REUNION_GUST REUNION_GUST_PER USA_SEAHGT USA_SEARAD_NE USA_SEARAD_SE USA_SEARAD_SW USA_SEARAD_NW STORM_SPEED STORM_DIR
1992289N08135 1992 111 WP MM COLLEEN 1992-10-15 00:00:00 NR 8.00000 134.900 main 915 904 O_____________ jtwc_wp WP261992 8.00000 134.900 15 -1 3 311
1992289N08135 1992 111 WP MM COLLEEN 1992-10-15 03:00:00 NR 8.09001 134.793 main 905 894 P_____________ WP261992 8.09001 134.793 15 -1 3 315
1992289N08135 1992 111 WP MM COLLEEN 1992-10-15 06:00:00 NR 8.20000 134.700 main 894 884 O_____________ jtwc_wp WP261992 8.20000 134.700 15 -1 3 328
1992289N08135 1992 111 WP MM COLLEEN 1992-10-15 09:00:00 NR 8.34250 134.635 main 884 884 P_____________ WP261992 8.34250 134.635 15 -1 3 343
1992289N08135 1992 111 WP MM COLLEEN 1992-10-15 12:00:00 NR 8.50000 134.600 main 886 886 O_____________ jtwc_wp WP261992 8.50000 134.600 15 -1 3 354
1992289N08135 1992 111 WP MM COLLEEN 1992-10-15 15:00:00 NR 8.65000 134.592 main 888 887 P_____________ WP261992 8.65000 134.592 15 -1 3 0
1992289N08135 1992 111 WP MM COLLEEN 1992-10-15 18:00:00 NR 8.80000 134.600 main 889 889 O_____________ jtwc_wp WP261992 8.80000 134.600 15 -1 3 0
1992289N08135 1992 111 WP MM COLLEEN 1992-10-15 21:00:00 NR 8.95000 134.593 main 892 891 P_____________ WP261992 8.95000 134.593 15 -1 3 0
1992289N08135 1992 111 WP MM COLLEEN 1992-10-16 00:00:00 NR 9.10000 134.600 main 894 894 O_____________ jtwc_wp WP261992 9.10000 134.600 15 -1 3 12
1992289N08135 1992 111 WP MM COLLEEN 1992-10-16 03:00:00 NR 9.24250 134.650 main 907 896 P_____________ WP261992 9.24250 134.650 17 -1 3 17
1992289N08135 1992 111 WP MM COLLEEN 1992-10-16 06:00:00 NR 9.40000 134.700 main 911 911 O_____________ jtwc_wp WP261992 9.40000 134.700 20 -1 4 11
1992289N08135 1992 111 WP MM COLLEEN 1992-10-16 09:00:00 NR 9.60000 134.715 main 916 916 P_____________ WP261992 9.60000 134.715 20 -1 4 0
1992289N08135 1992 111 WP MM COLLEEN 1992-10-16 12:00:00 NR 9.80000 134.700 main 921 921 O_____________ jtwc_wp WP261992 9.80000 134.700 20 -1 4 352
1992289N08135 1992 111 WP MM COLLEEN 1992-10-16 15:00:00 NR 9.96500 134.665 main 927 916 P_____________ WP261992 9.96500 134.665 20 -1 3 343
1992289N08135 1992 111 WP MM COLLEEN 1992-10-16 18:00:00 NR 10.1000 134.600 main 919 912 O_____________ jtwc_wp WP261992 10.1000 134.600 20 -1 3 327
1992289N08135 1992 111 WP MM COLLEEN 1992-10-16 21:00:00 NR 10.2075 134.508 main 912 904 P_____________ WP261992 10.2075 134.508 20 -1 3 315
1992289N08135 1992 111 WP MM COLLEEN 1992-10-17 00:00:00 NR 10.3000 134.400 main 904 895 O_____________ jtwc_wp WP261992 10.3000 134.400 20 -1 3 315
1992289N08135 1992 111 WP MM COLLEEN 1992-10-17 03:00:00 NR 10.4000 134.315 main 895 887 P_____________ WP261992 10.4000 134.315 20 -1 3 315
1992289N08135 1992 111 WP MM COLLEEN 1992-10-17 06:00:00 NR 10.5000 134.200 main 887 868 O_____________ jtwc_wp WP261992 10.5000 134.200 20 -1 3 305
1992289N08135 1992 111 WP MM COLLEEN 1992-10-17 09:00:00 NR 10.5925 134.037 main 868 849 P_____________ WP261992 10.5925 134.037 20 -1 4 297
1992289N08135 1992 111 WP MM COLLEEN 1992-10-17 12:00:00 NR 10.7000 133.800 main 849 819 O_____________ jtwc_wp WP261992 10.7000 133.800 20 -1 6 295
1992289N08135 1992 111 WP MM COLLEEN 1992-10-17 15:00:00 NR 10.8425 133.480 main 819 800 P_____________ WP261992 10.8425 133.480 20 -1 6 298
1992289N08135 1992 111 WP MM COLLEEN 1992-10-17 18:00:00 TS 11.0000 133.233 1004 tokyo main 792 753 OOO___________ jtwc_wp WP261992 11.0000 133.100 20 -1 11.0000 133.500 2 1004 0 0 0 11.0000 133.500 1 23 1004 7 290
1992289N08135 1992 111 WP MM COLLEEN 1992-10-17 21:00:00 TS 11.0789 132.825 main 753 715 PPP___________ WP261992 11.1350 132.700 22 -1 10.9503 132.950 2 1004 0 0 11.0953 132.950 1 23 1004 8 283
1992289N08135 1992 111 WP MM COLLEEN 1992-10-18 00:00:00 TS 11.1800 132.420 1004 tokyo main 715 687 OOO___________ jtwc_wp WP261992 11.3000 132.300 25 -1 11.0000 132.500 2 1004 0 0 0 11.2000 132.500 1 23 1004 7 292
1992289N08135 1992 111 WP MM COLLEEN 1992-10-18 03:00:00 TS 11.3607 132.120 main 689 668 PPP___________ WP261992 11.5425 131.935 30 -1 11.2124 132.213 2 1003 0 0 11.3274 132.212 1 26 1003 7 308
1992289N08135 1992 111 WP MM COLLEEN 1992-10-18 06:00:00 TS 11.6000 131.867 1002 tokyo main 668 638 OOO___________ jtwc_wp WP261992 11.8000 131.600 35 0 11.5000 132.000 2 1002 0 0 0 11.5000 132.000 1 29 1002 7 313
1992289N08135 1992 111 WP MM COLLEEN 1992-10-18 09:00:00 TS 11.8283 131.612 main 638 610 PPP___________ WP261992 11.9999 131.292 37 0 11.7499 131.772 2 1002 0 0 11.7349 131.772 1 29 1002 7 308
1992289N08135 1992 111 WP MM COLLEEN 1992-10-18 12:00:00 TS 12.0385 131.300 1002 tokyo main 610 574 OOOO__________ jtwc_wp WP261992 12.2000 131.000 40 0 12.0000 131.500 2 1002 0 0 0 12.0000 131.500 1 29 1002 11.7000 130.900 TD 25 1000 8 304
1992289N08135 1992 111 WP MM COLLEEN 1992-10-18 15:00:00 TS 12.2822 130.914 main 574 549 PPPP__________ WP261992 12.4575 130.678 42 0 12.2651 131.115 2 1000 0 0 12.2651 131.115 1 29 1000 12.0001 130.585 TD 27 1000 9 303
1992289N08135 1992 111 WP MM COLLEEN 1992-10-18 18:00:00 TS 12.5133 130.540 35 998 tokyo main 538 513 OOOO__________ jtwc_wp WP261992 12.7000 130.400 45 0 12.5000 130.700 3 35 998 0 9 40 40 0 12.5000 130.700 1 29 998 12.3000 130.300 TD 30 1000 8 301
1992289N08135 1992 111 WP MM COLLEEN 1992-10-18 21:00:00 TS 12.6912 130.229 main 513 493 PPPP__________ WP261992 12.8574 130.220 47 0 12.6575 130.312 3 35 996 0 9 50 50 12.6500 130.312 1 33 996 12.6000 130.070 TD 32 997 6 304
1992289N08135 1992 111 WP MM COLLEEN 1992-10-19 00:00:00 TS 12.8750 130.000 35 994 tokyo main 494 477 OOOO__________ jtwc_wp WP261992 13.0000 130.100 50 0 12.8000 130.000 3 35 994 0 9 60 60 0 12.8000 130.000 2 38 995 12.9000 129.900 TS 35 995 6 319
1992289N08135 1992 111 WP MM COLLEEN 1992-10-19 03:00:00 TS 13.1162 129.843 main 477 477 PPPP__________ WP261992 13.2000 129.992 52 0 12.9999 129.812 3 35 994 0 9 60 60 13.0574 129.812 2 38 995 13.2075 129.755 TS 37 992 5 333
1992289N08135 1992 111 WP MM COLLEEN 1992-10-19 06:00:00 TS 13.3500 129.750 35 994 tokyo main 485 475 OOOO__________ jtwc_wp WP261992 13.4000 129.900 55 0 13.2000 129.700 3 35 994 0 9 60 60 0 13.3000 129.700 2 38 995 13.5000 129.700 TS 40 990 4 338
1992289N08135 1992 111 WP MM COLLEEN 1992-10-19 09:00:00 TS 13.5237 129.672 main 478 471 PPPP__________ WP261992 13.5500 129.785 57 0 13.3575 129.570 3 40 992 0 9 80 80 13.4150 129.570 2 43 992 13.7725 129.762 TS 40 990 3 344
1992289N08135 1992 111 WP MM COLLEEN 1992-10-19 12:00:00 TS 13.6750 129.650 45 990 tokyo main 485 475 OOOO__________ jtwc_wp WP261992 13.7000 129.700 60 0 13.5000 129.500 3 45 990 0 9 100 100 0 13.5000 129.500 3 48 990 14.0000 129.900 TS 40 990 3 0
1992289N08135 1992 111 WP MM COLLEEN 1992-10-19 15:00:00 TS 13.8431 129.692 main 489 489 PPPP__________ WP261992 13.9075 129.670 62 0 13.6500 129.527 3 45 990 0 9 100 100 13.6425 129.527 3 48 990 14.1725 130.043 TS 40 990 3 20
1992289N08135 1992 111 WP MM COLLEEN 1992-10-19 18:00:00 TS 14.0000 129.775 45 990 tokyo main 507 507 OOOO__________ jtwc_wp WP261992 14.1000 129.700 65 1 13.8000 129.600 3 45 990 0 9 100 100 0 13.8000 129.600 3 48 990 14.3000 130.200 TS 40 990 3 28
1992289N08135 1992 111 WP MM COLLEEN 1992-10-19 21:00:00 TS 14.1287 129.851 main 522 522 PPPP__________ WP261992 14.2225 129.777 67 1 13.9425 129.635 3 45 990 0 9 100 100 13.9425 129.635 3 48 990 14.4075 130.358 TS 40 990 3 34
1992289N08135 1992 111 WP MM COLLEEN 1992-10-20 00:00:00 TS 14.2500 129.950 45 990 tokyo main 541 536 OOOO__________ jtwc_wp WP261992 14.3000 129.900 70 1 14.1000 129.700 3 45 990 0 9 100 100 0 14.1000 129.700 3 48 990 14.5000 130.500 TS 40 990 4 40
1992289N08135 1992 111 WP MM COLLEEN 1992-10-20 03:00:00 TS 14.4081 130.095 main 555 555 PPPP__________ WP261992 14.3725 130.050 75 1 14.3225 129.842 3 47 987 0 9 100 100 14.3375 129.842 3 48 987 14.6000 130.645 TS 40 990 4 44
1992289N08135 1992 111 WP MM COLLEEN 1992-10-20 06:00:00 TS 14.5250 130.225 50 985 tokyo main 570 570 OOOO__________ jtwc_wp WP261992 14.4000 130.200 80 1 14.5000 130.000 4 50 985 0 9 100 100 0 14.5000 130.000 3 48 985 14.7000 130.700 TS 40 990 2 53
1992289N08135 1992 111 WP MM COLLEEN 1992-10-20 09:00:00 TS 14.5537 130.294 main 584 579 PPPP__________ WP261992 14.3725 130.308 80 1 14.5600 130.145 4 50 985 0 9 130 130 14.4450 130.145 3 48 985 14.8375 130.580 TS 42 987 1 111
1992289N08135 1992 111 WP MM COLLEEN 1992-10-20 12:00:00 TS 14.5000 130.300 50 985 tokyo main 579 565 OOOO__________ jtwc_wp WP261992 14.3000 130.400 80 1 14.5000 130.200 4 50 985 0 9 160 160 0 14.3000 130.200 3 48 985 14.9000 130.400 TS 45 985 2 201
1992289N08135 1992 111 WP MM COLLEEN 1992-10-20 15:00:00 TS 14.3850 130.221 main 565 556 PPPP__________ WP261992 14.2150 130.508 80 1 14.3301 130.057 4 52 982 0 9 165 165 14.2151 130.057 3 53 982 14.7800 130.262 TS 45 985 3 207
1992289N08135 1992 111 WP MM COLLEEN 1992-10-20 18:00:00 TS 14.2250 130.150 55 980 tokyo main 556 546 OOOO__________ jtwc_wp WP261992 14.1000 130.600 80 1 14.1000 129.900 4 55 980 9 40 40 9 170 170 0 14.1000 129.900 3 58 980 14.6000 130.200 TS 45 985 3 187
1992289N08135 1992 111 WP MM COLLEEN 1992-10-20 21:00:00 TS 14.0494 130.184 main 547 543 PPPP__________ WP261992 13.9500 130.658 77 1 13.8625 129.905 4 55 980 9 45 45 9 175 175 13.8850 129.905 3 58 980 14.5000 130.270 TS 47 982 3 160
1992289N08135 1992 111 WP MM COLLEEN 1992-10-21 00:00:00 TS 13.9000 130.275 55 980 tokyo main 553 550 OOOO__________ jtwc_wp WP261992 13.8000 130.700 75 1 13.7000 130.000 4 55 980 9 50 50 9 180 180 0 13.7000 130.000 3 58 980 14.4000 130.400 STS 50 980 3 139
1992289N08135 1992 111 WP MM COLLEEN 1992-10-21 03:00:00 TS 13.8294 130.386 main 560 560 PPPP__________ WP261992 13.6925 130.750 75 1 13.7050 130.142 4 55 980 9 50 50 9 190 190 13.6625 130.150 3 63 975 14.2575 130.500 STS 50 980 2 115
1992289N08135 1992 111 WP MM COLLEEN 1992-10-21 06:00:00 TS 13.8000 130.500 55 980 tokyo main 570 570 OOOO__________ jtwc_wp WP261992 13.6000 130.800 75 1 13.8000 130.300 4 55 980 9 50 50 9 200 200 0 13.7000 130.300 4 68 970 14.1000 130.600 STS 50 980 2 105
1992289N08135 1992 111 WP MM COLLEEN 1992-10-21 09:00:00 TS 13.7769 130.588 main 581 581 PPPP__________ WP261992 13.5000 130.865 72 1 13.9075 130.422 4 55 980 9 50 50 9 220 220 13.7500 130.357 4 68 970 13.9500 130.708 STS 50 980 2 108
1992289N08135 1992 111 WP MM COLLEEN 1992-10-21 12:00:00 TS 13.7500 130.650 55 980 tokyo main 591 581 OOOO__________ jtwc_wp WP261992 13.4000 130.900 70 1 14.0000 130.500 4 55 980 9 50 50 9 240 240 0 13.8000 130.400 4 68 970 13.8000 130.800 STS 50 980 1 128
1992289N08135 1992 111 WP MM COLLEEN 1992-10-21 15:00:00 TS 13.7006 130.684 main 588 585 PPPP__________ WP261992 13.3000 130.865 70 1 14.0300 130.500 4 55 980 9 50 50 9 240 240 13.8150 130.508 4 68 970 13.6575 130.865 STS 52 977 1 156
1992289N08135 1992 111 WP MM COLLEEN 1992-10-21 18:00:00 TS 13.6250 130.700 55 980 tokyo main 585 582 OOOO__________ jtwc_wp WP261992 13.2000 130.800 70 1 14.0000 130.500 4 55 980 9 50 50 9 240 240 0 13.8000 130.600 4 68 970 13.5000 130.900 STS 55 975 2 166
1992289N08135 1992 111 WP MM COLLEEN 1992-10-21 21:00:00 TS 13.5331 130.716 main 582 579 PPPP__________ WP261992 13.0850 130.750 70 1 13.9525 130.592 4 55 980 9 50 50 9 240 240 13.7950 130.600 4 68 970 13.3000 130.923 STS 57 972 2 0
1992289N08135 1992 111 WP MM COLLEEN 1992-10-22 00:00:00 TS 13.4000 130.725 55 980 tokyo main 579 575 OOOO__________ jtwc_wp WP261992 13.0000 130.700 70 1 13.8000 130.700 4 55 980 9 50 50 9 240 240 0 13.7000 130.600 4 68 970 13.1000 130.900 STS 60 970 3 178
1992289N08135 1992 111 WP MM COLLEEN 1992-10-22 03:00:00 TS 13.1906 130.733 main 575 571 PPPP__________ WP261992 12.9850 130.658 70 1 13.4425 130.758 4 55 980 9 50 50 9 240 240 13.4150 130.685 4 68 970 12.9200 130.830 STS 57 972 4 0
1992289N08135 1992 111 WP MM COLLEEN 1992-10-22 06:00:00 TS 13.0000 130.725 55 980 tokyo main 571 570 OOOO__________ jtwc_wp WP261992 13.0000 130.600 70 1 13.1000 130.800 4 55 980 9 50 50 9 240 240 0 13.1000 130.800 4 68 970 12.8000 130.700 STS 55 975 3 0
1992289N08135 1992 111 WP MM COLLEEN 1992-10-22 09:00:00 TS 12.9106 130.714 main 570 570 PPPP__________ WP261992 12.9925 130.507 70 1 12.9975 130.887 4 55 980 9 50 50 9 240 240 12.8900 130.952 4 68 970 12.7625 130.508 STS 52 977 1 213
1992289N08135 1992 111 WP MM COLLEEN 1992-10-22 12:00:00 TS 12.9000 130.650 55 980 tokyo main 570 548 OOOO__________ jtwc_wp WP261992 13.0000 130.400 70 1 13.0000 130.900 4 55 980 9 50 50 9 240 240 0 12.8000 131.000 4 68 970 12.8000 130.300 STS 50 980 2 278
1992289N08135 1992 111 WP MM COLLEEN 1992-10-22 15:00:00 TS 12.9400 130.494 main 548 528 PPPP__________ WP261992 13.0275 130.292 67 1 12.9850 130.745 4 55 980 9 50 50 9 240 240 12.8701 130.803 4 68 970 12.8775 130.135 STS 50 980 4 290
1992289N08135 1992 111 WP MM COLLEEN 1992-10-22 18:00:00 TS 13.0250 130.300 55 980 tokyo main 528 509 OOOO__________ jtwc_wp WP261992 13.1000 130.200 65 1 13.0000 130.500 4 55 980 9 50 50 9 240 240 0 13.0000 130.500 4 68 970 13.0000 130.000 STS 50 980 4 295
1992289N08135 1992 111 WP MM COLLEEN 1992-10-22 21:00:00 TS 13.1100 130.121 main 509 501 PPPP__________ WP261992 13.2350 130.143 65 1 13.0275 130.235 4 55 980 9 45 45 9 240 240 13.0425 130.227 4 68 970 13.1350 129.878 STS 50 980 4 302
1992289N08135 1992 111 WP MM COLLEEN 1992-10-23 00:00:00 TS 13.2250 129.975 55 980 tokyo main 501 493 OOOO__________ jtwc_wp WP261992 13.4000 130.100 65 1 13.1000 130.000 4 55 980 9 40 40 9 240 240 0 13.1000 130.000 4 68 970 13.3000 129.800 STS 50 980 4 319
1992289N08135 1992 111 WP MM COLLEEN 1992-10-23 03:00:00 TS 13.3725 129.883 main 495 488 PPPP__________ WP261992 13.5425 130.020 62 0 13.2275 129.863 4 55 980 9 40 40 9 270 240 13.2275 129.863 4 68 970 13.4925 129.785 STS 47 982 3 340
1992289N08135 1992 111 WP MM COLLEEN 1992-10-23 06:00:00 TS 13.5500 129.850 55 980 tokyo main 491 488 OOOO__________ jtwc_wp WP261992 13.7000 130.000 60 0 13.4000 129.800 4 55 980 9 40 40 4 300 240 0 13.4000 129.800 4 68 970 13.7000 129.800 TS 45 985 4 357
1992289N08135 1992 111 WP MM COLLEEN 1992-10-23 09:00:00 TS 13.7369 129.874 main 505 505 PPPP__________ WP261992 13.8850 130.135 60 0 13.5850 129.785 4 52 982 9 4 300 240 13.5850 129.785 4 68 970 13.8925 129.793 TS 42 987 4 9
1992289N08135 1992 111 WP MM COLLEEN 1992-10-23 12:00:00 TS 13.9500 129.925 50 985 tokyo main 517 517 OOOO__________ jtwc_wp WP261992 14.1000 130.300 60 0 13.8000 129.800 4 50 985 0 4 300 240 0 13.8000 129.800 4 68 970 14.1000 129.800 TS 40 990 5 10
1992289N08135 1992 111 WP MM COLLEEN 1992-10-23 15:00:00 TS 14.1869 129.958 main 536 536 PPPP__________ WP261992 14.3500 130.395 57 0 14.0275 129.793 4 50 985 0 4 300 240 14.0275 129.793 4 63 975 14.3425 129.850 TS 35 992 5 7
1992289N08135 1992 111 WP MM COLLEEN 1992-10-23 18:00:00 TS 14.4500 129.975 50 985 tokyo main 550 545 OOOO__________ jtwc_wp WP261992 14.6000 130.400 55 0 14.3000 129.800 4 50 985 0 4 300 240 0 14.3000 129.800 3 58 980 14.6000 129.900 TD 30 995 6 5
1992289N08135 1992 111 WP MM COLLEEN 1992-10-23 21:00:00 TS 14.7318 130.002 main 561 561 PPPP__________ WP261992 14.8000 130.295 55 0 14.6350 129.880 4 47 987 0 4 300 240 14.6350 129.880 3 58 980 14.8574 129.952 TD 27 995 6 0
1992289N08135 1992 111 WP MM COLLEEN 1992-10-24 00:00:00 TS 15.0250 129.950 45 990 tokyo main 578 569 OOOO__________ jtwc_wp WP261992 15.0000 130.100 55 0 15.0000 129.900 3 45 990 9 40 40 4 300 240 0 15.0000 129.900 3 58 980 15.1000 129.900 TD 25 995 7 339
1992289N08135 1992 111 WP MM COLLEEN 1992-10-24 03:00:00 TS 15.3444 129.756 main 579 575 PPPP__________ WP261992 15.2650 129.873 55 0 15.3875 129.738 3 45 990 9 40 40 4 300 240 15.3875 129.745 3 58 980 15.3375 129.668 TD 25 995 7 321
1992289N08135 1992 111 WP MM COLLEEN 1992-10-24 06:00:00 TS 15.6000 129.475 45 990 tokyo main 575 554 OOOO__________ jtwc_wp WP261992 15.5000 129.600 55 0 15.7000 129.500 3 45 990 9 40 40 4 300 240 0 15.7000 129.500 3 58 980 15.5000 129.300 TD 25 995 7 305
1992289N08135 1992 111 WP MM COLLEEN 1992-10-24 09:00:00 TS 15.7256 129.192 main 554 528 PPPP__________ WP261992 15.6449 129.330 57 0 15.8599 129.322 3 45 990 9 40 40 4 300 240 15.8600 129.265 3 53 982 15.5377 128.850 TD 25 995 6 285
1992289N08135 1992 111 WP MM COLLEEN 1992-10-24 12:00:00 TS 15.7500 128.875 45 990 tokyo main 528 494 OOOO__________ jtwc_wp WP261992 15.7000 129.000 60 0 15.9000 129.100 3 45 990 9 40 40 4 300 240 0 15.9000 129.000 3 48 985 15.5000 128.400 TD 25 995 6 271
1992289N08135 1992 111 WP MM COLLEEN 1992-10-24 15:00:00 TS 15.7391 128.579 main 494 455 PPPP__________ WP261992 15.6947 128.610 60 0 15.9022 128.818 3 47 987 9 4 300 255 15.9022 128.760 3 48 985 15.4571 128.130 TD 27 995 7 262
1992289N08135 1992 111 WP MM COLLEEN 1992-10-24 18:00:00 TS 15.6500 128.175 50 985 tokyo main 455 388 OOOO__________ jtwc_wp WP261992 15.6000 128.100 60 0 15.8000 128.400 4 50 985 0 7 300 270 0 15.8000 128.400 3 48 985 15.4000 127.800 TD 30 995 10 255
1992289N08135 1992 111 WP MM COLLEEN 1992-10-24 21:00:00 TS 15.4719 127.568 main 388 311 PPPP__________ WP261992 15.4076 127.437 62 0 15.5575 127.810 4 50 985 0 7 300 270 15.5650 127.825 3 53 982 15.3577 127.203 TD 35 990 13 254
1992289N08135 1992 111 WP MM COLLEEN 1992-10-25 00:00:00 TS 15.2750 126.850 50 985 tokyo main 311 235 OOOO__________ jtwc_wp WP261992 15.2000 126.700 65 1 15.3000 127.100 4 50 985 0 7 300 270 0 15.3000 127.100 3 58 980 15.3000 126.500 TS 40 985 14 256
1992289N08135 1992 111 WP MM COLLEEN 1992-10-25 03:00:00 TS 15.1361 126.133 main 227 170 PPPP__________ WP261992 15.0698 126.000 65 1 15.1623 126.373 4 52 982 0 7 300 270 15.1126 126.307 3 58 980 15.1998 125.850 TS 42 982 14 261
1992289N08135 1992 111 WP MM COLLEEN 1992-10-25 06:00:00 TS 15.0500 125.400 55 980 tokyo main 170 119 OOOO__________ jtwc_wp WP261992 15.0000 125.300 65 1 15.1000 125.600 4 55 980 9 40 40 7 300 270 0 15.0000 125.500 3 58 980 15.1000 125.200 TS 45 980 14 265
1992289N08135 1992 111 WP MM COLLEEN 1992-10-25 09:00:00 TS 15.0259 124.697 main 119 111 PPPP__________ WP261992 14.9997 124.608 65 1 15.0847 124.815 4 55 980 9 40 40 7 300 270 14.9768 124.815 3 58 980 15.0423 124.550 TS 45 980 14 269
1992289N08135 1992 111 WP MM COLLEEN 1992-10-25 12:00:00 TS 15.0250 123.975 55 980 tokyo main 112 95 OOOO__________ jtwc_wp WP261992 15.0000 123.900 65 1 15.1000 124.000 4 55 980 9 40 40 7 300 270 0 15.0000 124.100 3 58 980 15.0000 123.900 TS 45 980 15 269
1992289N08135 1992 111 WP MM COLLEEN 1992-10-25 15:00:00 TS 15.0006 123.184 main 95 82 PPPP__________ WP261992 14.9148 123.157 62 0 15.1076 123.128 4 55 980 9 40 40 7 300 270 15.0079 123.185 3 58 980 14.9722 123.265 TS 42 982 15 267
1992289N08135 1992 111 WP MM COLLEEN 1992-10-25 18:00:00 TS 14.9500 122.400 55 980 tokyo main 82 15 OOOO__________ jtwc_wp WP261992 14.8000 122.400 60 0 15.1000 122.300 4 55 980 9 40 40 7 300 270 0 15.0000 122.300 3 58 980 14.9000 122.600 TS 40 985 14 265
1992289N08135 1992 111 WP MM COLLEEN 1992-10-25 21:00:00 TS 14.8664 121.709 main 15 0 PPPP__________ WP261992 14.6923 121.650 57 0 15.0794 121.635 4 55 980 9 40 40 7 300 270 14.9717 121.685 3 58 980 14.7224 121.865 TS 40 985 13 261
1992289N08135 1992 111 WP MM COLLEEN 1992-10-26 00:00:00 TS 14.7500 121.025 55 980 tokyo main 0 0 OOOO__________ jtwc_wp WP261992 14.6000 120.900 55 0 15.0000 121.000 4 55 980 9 40 40 7 300 270 0 14.9000 121.100 3 58 980 14.5000 121.100 TS 40 985 14 259
1992289N08135 1992 111 WP MM COLLEEN 1992-10-26 03:00:00 TS 14.5999 120.274 main 10 10 PPPP__________ WP261992 14.5498 120.150 52 0 14.8074 120.265 4 52 982 9 7 300 270 14.7651 120.322 3 53 982 14.2772 120.357 TS 37 987 15 259
1992289N08135 1992 111 WP MM COLLEEN 1992-10-26 06:00:00 TS 14.4500 119.500 50 985 tokyo main 72 78 OOOO__________ jtwc_wp WP261992 14.5000 119.400 50 0 14.6000 119.500 4 50 985 0 7 300 270 0 14.6000 119.500 3 48 985 14.1000 119.600 TS 35 990 15 260
1992289N08135 1992 111 WP MM COLLEEN 1992-10-26 09:00:00 TS 14.3478 118.741 main 160 160 PPPP__________ WP261992 14.4148 118.650 52 0 14.4922 118.758 4 50 985 0 7 300 255 14.4421 118.750 3 48 985 14.0423 118.808 TS 40 985 15 262
1992289N08135 1992 111 WP MM COLLEEN 1992-10-26 12:00:00 TS 14.2500 117.975 50 985 tokyo main 232 235 OOOO__________ jtwc_wp WP261992 14.3000 117.900 55 0 14.4000 118.000 4 50 985 0 7 300 240 0 14.3000 118.000 3 48 985 14.0000 118.000 TS 45 980 15 262
1992289N08135 1992 111 WP MM COLLEEN 1992-10-26 15:00:00 TS 14.1253 117.201 main 322 322 PPPP__________ WP261992 14.1723 117.150 60 0 14.2646 117.230 4 50 985 0 7 300 240 14.1997 117.223 3 48 985 13.8647 117.200 TS 50 977 16 260
1992289N08135 1992 111 WP MM COLLEEN 1992-10-26 18:00:00 TS 13.9750 116.400 50 985 tokyo main 407 407 OOOO__________ jtwc_wp WP261992 14.0000 116.400 65 1 14.1000 116.400 4 50 985 0 7 300 240 0 14.1000 116.400 3 48 985 13.7000 116.400 STS 55 975 16 258
1992289N08135 1992 111 WP MM COLLEEN 1992-10-26 21:00:00 TS 13.7818 115.548 main 506 506 PPPP__________ WP261992 13.7273 115.650 67 1 13.9002 115.442 4 52 982 0 7 300 220 13.9651 115.493 3 53 982 13.5347 115.607 STS 60 970 17 257
1992289N08135 1992 111 WP MM COLLEEN 1992-10-27 00:00:00 TS 13.6000 114.700 55 980 tokyo main 568 481 OOOO__________ jtwc_wp WP261992 13.5000 114.900 70 1 13.7000 114.500 4 55 980 9 40 40 7 300 200 0 13.8000 114.600 3 58 980 13.4000 114.800 T 65 965 16 259
1992289N08135 1992 111 WP MM COLLEEN 1992-10-27 03:00:00 TS 13.4567 113.897 main 481 404 PPPP__________ WP261992 13.4473 114.150 72 1 13.5122 113.690 4 55 980 9 40 40 7 300 200 13.5622 113.812 3 58 980 13.3050 113.935 T 62 967 15 262
1992289N08135 1992 111 WP MM COLLEEN 1992-10-27 06:00:00 TS 13.4000 113.150 55 980 tokyo main 404 329 OOOO__________ jtwc_wp WP261992 13.5000 113.400 75 1 13.4000 113.000 4 55 980 9 40 40 7 300 200 0 13.4000 113.100 3 58 980 13.3000 113.100 STS 60 970 14 270
1992289N08135 1992 111 WP MM COLLEEN 1992-10-27 09:00:00 TS 13.4529 112.461 main 331 271 PPPP__________ WP261992 13.5849 112.635 72 1 13.3821 112.427 4 55 980 9 40 40 7 300 200 13.4322 112.435 3 53 982 13.4123 112.348 STS 55 975 13 279
1992289N08135 1992 111 WP MM COLLEEN 1992-10-27 12:00:00 TS 13.6000 111.825 55 980 tokyo main 261 205 OOOO__________ jtwc_wp WP261992 13.7000 111.900 70 1 13.5000 111.900 4 55 980 9 40 40 7 300 200 0 13.6000 111.800 3 48 985 13.6000 111.700 STS 50 980 13 286
1992289N08135 1992 111 WP MM COLLEEN 1992-10-27 15:00:00 TS 13.8067 111.204 main 205 151 PPPP__________ WP261992 13.7848 111.227 67 1 13.7925 111.293 4 52 982 9 7 275 190 13.8500 111.128 3 48 985 13.7997 111.170 STS 47 982 12 290
1992289N08135 1992 111 WP MM COLLEEN 1992-10-27 18:00:00 TS 14.0250 110.625 50 985 tokyo main 140 92 OOOO__________ jtwc_wp WP261992 13.9000 110.600 65 1 14.1000 110.700 4 50 985 0 7 250 180 0 14.1000 110.500 3 48 985 14.0000 110.700 TS 45 985 11 289
1992289N08135 1992 111 WP MM COLLEEN 1992-10-27 21:00:00 TS 14.1792 110.092 main 92 48 PPPP__________ WP261992 14.0848 109.993 62 0 14.2373 110.185 4 50 985 0 7 250 150 14.2296 109.992 3 48 985 14.1649 110.200 TS 42 987 11 285
1992289N08135 1992 111 WP MM COLLEEN 1992-10-28 00:00:00 TS 14.3000 109.575 50 985 tokyo main 48 0 OOOO__________ jtwc_wp WP261992 14.3000 109.400 60 0 14.3000 109.700 4 50 985 0 2 250 120 0 14.3000 109.500 3 48 985 14.3000 109.700 TS 40 990 11 283
1992289N08135 1992 111 WP MM COLLEEN 1992-10-28 03:00:00 TS 14.4111 109.036 main 0 0 PPPP__________ WP261992 14.5222 108.815 55 0 14.3574 109.200 4 47 987 0 2 225 100 14.3652 108.885 3 43 987 14.3996 109.245 TS 37 990 11 281
1992289N08135 1992 111 WP MM COLLEEN 1992-10-28 06:00:00 TS 14.5000 108.475 45 990 tokyo main 0 0 OOOO__________ jtwc_wp WP261992 14.7000 108.200 50 0 14.4000 108.700 3 45 990 0 2 200 80 0 14.4000 108.300 2 38 990 14.5000 108.700 TS 35 990 11 278
1992289N08135 1992 111 WP MM COLLEEN 1992-10-28 09:00:00 TS 14.5736 107.890 main 0 0 PPPP__________ WP261992 14.7800 107.507 45 0 14.4573 108.215 3 40 992 0 2 190 80 14.4072 107.885 2 33 992 14.6500 107.953 TS 32 992 12 276
1992289N08135 1992 111 WP MM COLLEEN 1992-10-28 12:00:00 TS 14.6133 107.287 35 994 tokyo main 0 0 OOOO__________ jtwc_wp WP261992 14.8000 106.800 40 0 14.5000 107.700 3 35 994 0 2 180 80 0 14.4000 107.500 1 29 995 14.8000 107.100 TD 30 995 12 272
1992289N08135 1992 111 WP MM COLLEEN 1992-10-28 15:00:00 TS 14.6204 106.678 main 0 0 PPPP__________ WP261992 14.8072 106.150 35 0 14.5076 107.092 3 996 0 2 14.4000 107.007 1 24 997 14.9130 106.245 TD 27 995 12 270
1992289N08135 1992 111 WP MM COLLEEN 1992-10-28 18:00:00 TS 14.6167 106.075 998 tokyo main 0 0 OOOO__________ jtwc_wp WP261992 14.8000 105.500 30 -1 14.5000 106.500 2 998 0 0 0 14.4000 106.500 0 19 1000 15.0000 105.400 TD 25 995 11 269
1992289N08135 1992 111 WP MM COLLEEN 1992-10-28 21:00:00 TS 14.5969 105.526 main 0 0 PPP___________ WP261992 14.7849 104.807 27 -1 14.5074 105.990 2 1000 0 0 14.4001 106.035 0 19 1002 TD 11 270
1992289N08135 1992 111 WP MM COLLEEN 1992-10-29 00:00:00 TS 14.6222 104.933 1002 tokyo main 0 0 OOO___________ jtwc_wp WP261992 14.8000 104.100 25 -1 14.5000 105.600 2 1002 0 0 0 14.4000 105.600 0 19 1004 11 273
1992289N08135 1992 111 WP MM COLLEEN 1992-10-29 03:00:00 TS 14.6561 104.370 main 0 0 PP____________ WP261992 14.8549 103.392 22 -1 14.4574 105.347 2 1003 0 0 0 11 276
1992289N08135 1992 111 WP MM COLLEEN 1992-10-29 06:00:00 TS 14.7429 103.771 1004 tokyo main 0 0 OO____________ jtwc_wp WP261992 15.0000 102.700 20 -1 14.4000 105.200 2 1004 0 0 0 13 283
1992289N08135 1992 111 WP MM COLLEEN 1992-10-29 09:00:00 TS 14.9574 103.059 main 0 0 PP____________ WP261992 15.2623 102.043 17 -1 14.3475 105.092 2 1004 0 0 15 291
1992289N08135 1992 111 WP MM COLLEEN 1992-10-29 12:00:00 TS 15.2750 102.300 1004 tokyo main 0 0 OO____________ jtwc_wp WP261992 15.6000 101.400 15 -1 14.3000 105.000 2 1004 0 0 0 24 294
1992289N08135 1992 111 WP MM COLLEEN 1992-10-29 15:00:00 NR 15.9504 100.753 main 0 0 P_____________ WP261992 15.9504 100.753 15 -1 2 0 0 24 296
1992289N08135 1992 111 WP MM COLLEEN 1992-10-29 18:00:00 NR 16.3000 100.100 main 0 O_____________ jtwc_wp WP261992 16.3000 100.100 15 -1 14 299

デジタル台風データ・検索

IBTrACS Databaseについて

本データベースは、米国NOAAが公開する1842年以降の世界の熱帯低気圧のベストトラックデータアーカイブInternational Best Track Archive for Climate Stewardship (IBTrACS)を、ウェブで閲覧しやすい形式に変換したものです。

最終更新日:2021-10-27